createdAt,value
2017-07-17T00:00:09.411Z,32
2017-07-17T00:02:07.452Z,31
2017-07-17T00:04:07.197Z,31
2017-07-17T00:06:09.385Z,32
2017-07-17T00:08:07.133Z,32
2017-07-17T00:10:06.803Z,31
2017-07-17T00:12:11.594Z,32
2017-07-17T00:14:07.561Z,32
2017-07-17T00:16:07.232Z,32
2017-07-17T00:18:07.278Z,32
2017-07-17T00:20:09.637Z,31
2017-07-17T00:22:09.852Z,32
2017-07-17T00:24:21.751Z,31
2017-07-17T00:26:06.765Z,31
2017-07-17T00:28:06.454Z,31
2017-07-17T00:30:07.147Z,31
2017-07-17T00:32:06.899Z,31
2017-07-17T00:34:06.626Z,32
2017-07-17T00:36:07.309Z,31
2017-07-17T00:38:07.039Z,31
2017-07-17T00:40:06.787Z,31
2017-07-17T00:42:06.430Z,32
2017-07-17T00:44:07.219Z,31
2017-07-17T00:46:06.981Z,32
2017-07-17T00:48:06.633Z,31
2017-07-17T00:50:12.788Z,31
2017-07-17T00:52:09.049Z,31
2017-07-17T00:54:06.761Z,31
2017-07-17T00:56:06.799Z,31
2017-07-17T00:58:06.483Z,31
2017-07-17T01:00:07.154Z,31
2017-07-17T01:02:06.906Z,31
2017-07-17T01:04:06.625Z,31
2017-07-17T01:06:22.686Z,31
2017-07-17T01:08:09.992Z,31
2017-07-17T01:10:06.742Z,31
2017-07-17T01:12:06.455Z,31
2017-07-17T01:14:09.791Z,31
2017-07-17T01:16:06.489Z,31
2017-07-17T01:18:06.411Z,31
2017-07-17T01:20:07.105Z,31
2017-07-17T01:22:14.516Z,31
2017-07-17T01:24:07.220Z,31
2017-07-17T01:26:14.587Z,31
2017-07-17T01:28:07.247Z,31
2017-07-17T01:30:07.030Z,31
2017-07-17T01:32:06.800Z,31
2017-07-17T01:34:06.480Z,31
2017-07-17T01:36:14.761Z,31
2017-07-17T01:38:06.510Z,31
2017-07-17T01:40:07.269Z,31
2017-07-17T01:42:12.100Z,31
2017-07-17T01:44:11.890Z,31
2017-07-17T01:46:16.676Z,31
2017-07-17T01:48:07.463Z,31
2017-07-17T01:50:09.657Z,31
2017-07-17T01:52:07.392Z,31
2017-07-17T01:54:09.910Z,31
2017-07-17T01:56:06.769Z,31
2017-07-17T01:58:06.460Z,31
2017-07-17T02:00:07.172Z,30
2017-07-17T02:02:06.940Z,31
2017-07-17T02:04:11.691Z,31
2017-07-17T02:06:06.449Z,31
2017-07-17T02:08:12.329Z,31
2017-07-17T02:10:07.186Z,31
2017-07-17T02:12:11.950Z,31
2017-07-17T02:14:09.337Z,31
2017-07-17T02:16:12.093Z,31
2017-07-17T02:18:06.991Z,31
2017-07-17T02:20:06.831Z,31
2017-07-17T02:22:06.547Z,31
2017-07-17T02:24:09.745Z,31
2017-07-17T02:26:06.751Z,31
2017-07-17T02:28:06.409Z,31
2017-07-17T02:30:09.620Z,31
2017-07-17T02:32:10.205Z,31
2017-07-17T02:34:09.443Z,31
2017-07-17T02:36:14.740Z,31
2017-07-17T02:38:06.590Z,31
2017-07-17T02:40:07.425Z,31
2017-07-17T02:42:07.339Z,31
2017-07-17T02:44:09.662Z,31
2017-07-17T02:46:09.920Z,31
2017-07-17T02:48:06.665Z,31
2017-07-17T02:50:07.377Z,31
2017-07-17T02:52:07.135Z,31
2017-07-17T02:54:06.827Z,31
2017-07-17T02:56:06.521Z,31
2017-07-17T02:58:14.988Z,31
2017-07-17T03:00:11.697Z,31
2017-07-17T03:02:06.666Z,31
2017-07-17T03:04:07.347Z,31
2017-07-17T03:06:07.025Z,31
2017-07-17T03:08:06.849Z,31
2017-07-17T03:10:06.554Z,31
2017-07-17T03:12:14.818Z,31
2017-07-17T03:14:09.147Z,31
2017-07-17T03:16:09.339Z,31
2017-07-17T03:18:07.250Z,31
2017-07-17T03:20:07.039Z,31
2017-07-17T03:22:09.286Z,31
2017-07-17T03:24:06.953Z,31
2017-07-17T03:26:06.840Z,31
2017-07-17T03:28:06.472Z,31
2017-07-17T03:30:07.243Z,31
2017-07-17T03:32:07.030Z,31
2017-07-17T03:34:06.667Z,31
2017-07-17T03:36:07.371Z,31
2017-07-17T03:38:12.141Z,31
2017-07-17T03:40:09.390Z,30
2017-07-17T03:42:07.067Z,31
2017-07-17T03:44:11.913Z,31
2017-07-17T03:46:06.830Z,31
2017-07-17T03:48:09.067Z,31
2017-07-17T03:50:09.387Z,31
2017-07-17T03:52:07.053Z,31
2017-07-17T03:54:09.406Z,31
2017-07-17T03:56:09.634Z,31
2017-07-17T03:58:14.944Z,31
2017-07-17T04:00:09.174Z,31
2017-07-17T04:02:14.745Z,31
2017-07-17T04:04:06.428Z,31
2017-07-17T04:06:14.673Z,31
2017-07-17T04:08:07.380Z,31
2017-07-17T04:10:09.561Z,31
2017-07-17T04:12:07.247Z,31
2017-07-17T04:14:09.681Z,31
2017-07-17T04:16:12.419Z,31
2017-07-17T04:18:10.091Z,31
2017-07-17T04:20:12.064Z,31
2017-07-17T04:22:09.333Z,30
2017-07-17T04:24:06.982Z,31
2017-07-17T04:26:10.945Z,31
2017-07-17T04:28:05.596Z,31
2017-07-17T04:30:09.804Z,31
2017-07-17T04:32:06.561Z,31
2017-07-17T04:34:07.473Z,31
2017-07-17T04:36:19.877Z,31
2017-07-17T04:38:09.445Z,31
2017-07-17T04:40:14.724Z,31
2017-07-17T04:42:06.387Z,31
2017-07-17T04:44:12.247Z,31
2017-07-17T04:46:19.562Z,31
2017-07-17T04:48:09.892Z,31
2017-07-17T04:50:14.354Z,31
2017-07-17T04:52:07.044Z,31
2017-07-17T04:54:06.793Z,31
2017-07-17T04:56:06.588Z,31
2017-07-17T04:58:07.247Z,32
2017-07-17T05:00:06.945Z,32
2017-07-17T05:02:06.959Z,32
2017-07-17T05:04:09.167Z,32
2017-07-17T05:06:07.043Z,32
2017-07-17T05:08:06.933Z,32
2017-07-17T05:10:16.752Z,32
2017-07-17T05:12:08.978Z,32
2017-07-17T05:14:06.750Z,32
2017-07-17T05:16:08.981Z,32
2017-07-17T05:18:06.894Z,32
2017-07-17T05:20:06.700Z,32
2017-07-17T05:22:06.344Z,32
2017-07-17T05:24:12.180Z,32
2017-07-17T05:26:07.194Z,32
2017-07-17T05:28:06.911Z,32
2017-07-17T05:30:09.121Z,32
2017-07-17T05:32:07.177Z,32
2017-07-17T05:34:11.979Z,32
2017-07-17T05:36:06.716Z,32
2017-07-17T05:38:09.307Z,32
2017-07-17T05:40:06.999Z,32
2017-07-17T05:42:06.700Z,32
2017-07-17T05:44:06.404Z,32
2017-07-17T05:46:12.178Z,32
2017-07-17T05:48:09.376Z,32
2017-07-17T05:50:07.085Z,32
2017-07-17T05:52:09.258Z,33
2017-07-17T05:54:07.067Z,32
2017-07-17T05:56:06.859Z,33
2017-07-17T05:58:06.529Z,33
2017-07-17T06:00:07.255Z,33
2017-07-17T06:02:11.971Z,33
2017-07-17T06:04:09.448Z,33
2017-07-17T06:06:12.420Z,33
2017-07-17T06:08:07.283Z,33
2017-07-17T06:10:07.121Z,33
2017-07-17T06:12:07.005Z,33
2017-07-17T06:14:06.910Z,33
2017-07-17T06:16:06.635Z,33
2017-07-17T06:18:06.509Z,33
2017-07-17T06:20:07.388Z,33
2017-07-17T06:22:12.137Z,33
2017-07-17T06:24:06.859Z,33
2017-07-17T06:26:06.630Z,33
2017-07-17T06:28:10.759Z,33
2017-07-17T06:30:06.458Z,33
2017-07-17T06:32:07.528Z,33
2017-07-17T06:34:07.261Z,33
2017-07-17T06:36:06.935Z,33
2017-07-17T06:38:12.230Z,33
2017-07-17T06:40:06.986Z,33
2017-07-17T06:42:06.700Z,33
2017-07-17T06:44:06.579Z,33
2017-07-17T06:46:09.885Z,33
2017-07-17T06:48:06.691Z,33
2017-07-17T06:50:09.104Z,33
2017-07-17T06:52:12.037Z,33
2017-07-17T06:54:09.270Z,33
2017-07-17T06:56:07.325Z,33
2017-07-17T06:58:07.153Z,33
2017-07-17T07:00:09.373Z,33
2017-07-17T07:02:12.363Z,33
2017-07-17T07:04:07.038Z,33
2017-07-17T07:06:06.837Z,33
2017-07-17T07:08:09.170Z,33
2017-07-17T07:10:06.904Z,33
2017-07-17T07:12:09.112Z,33
2017-07-17T07:14:06.938Z,33
2017-07-17T07:16:06.633Z,33
2017-07-17T07:18:09.077Z,34
2017-07-17T07:20:09.633Z,34
2017-07-17T07:22:12.437Z,33
2017-07-17T07:24:12.209Z,33
2017-07-17T07:26:07.026Z,33
2017-07-17T07:28:06.718Z,34
2017-07-17T07:30:06.641Z,34
2017-07-17T07:32:07.389Z,34
2017-07-17T07:34:14.668Z,34
2017-07-17T07:36:09.881Z,34
2017-07-17T07:38:06.647Z,34
2017-07-17T07:40:09.867Z,34
2017-07-17T07:42:09.116Z,34
2017-07-17T07:44:07.868Z,33
2017-07-17T07:46:09.434Z,33
2017-07-17T07:48:09.631Z,33
2017-07-17T07:50:07.331Z,33
2017-07-17T07:52:07.012Z,34
2017-07-17T07:54:14.571Z,34
2017-07-17T07:56:12.517Z,34
2017-07-17T07:58:07.223Z,34
2017-07-17T08:00:09.487Z,34
2017-07-17T08:02:07.298Z,34
2017-07-17T08:04:06.992Z,34
2017-07-17T08:06:09.297Z,34
2017-07-17T08:08:14.908Z,34
2017-07-17T08:10:14.171Z,34
2017-07-17T08:12:06.936Z,34
2017-07-17T08:14:06.680Z,34
2017-07-17T08:16:07.329Z,34
2017-07-17T08:18:07.549Z,34
2017-07-17T08:20:07.299Z,35
2017-07-17T08:22:12.037Z,36
2017-07-17T08:24:06.683Z,35
2017-07-17T08:26:15.315Z,36
2017-07-17T08:28:07.044Z,38
2017-07-17T08:30:09.284Z,39
2017-07-17T08:32:12.205Z,41
2017-07-17T08:34:07.122Z,41
2017-07-17T08:36:06.815Z,41
2017-07-17T08:38:14.386Z,41
2017-07-17T08:40:09.605Z,41
2017-07-17T08:42:09.799Z,42
2017-07-17T08:44:06.673Z,42
2017-07-17T08:46:07.350Z,42
2017-07-17T08:48:07.126Z,42
2017-07-17T08:50:09.506Z,42
2017-07-17T08:52:07.242Z,42
2017-07-17T08:54:06.924Z,42
2017-07-17T08:56:06.593Z,42
2017-07-17T08:58:07.225Z,42
2017-07-17T09:00:06.880Z,42
2017-07-17T09:02:06.752Z,42
2017-07-17T09:04:14.055Z,42
2017-07-17T09:06:06.771Z,42
2017-07-17T09:08:12.373Z,41
2017-07-17T09:10:12.147Z,41
2017-07-17T09:12:06.925Z,40
2017-07-17T09:14:06.658Z,41
2017-07-17T09:16:07.342Z,41
2017-07-17T09:18:10.114Z,42
2017-07-17T09:20:14.585Z,42
2017-07-17T09:22:14.595Z,41
2017-07-17T09:24:07.280Z,41
2017-07-17T09:26:09.568Z,41
2017-07-17T09:28:12.287Z,41
2017-07-17T09:30:07.021Z,42
2017-07-17T09:32:14.542Z,42
2017-07-17T09:34:09.748Z,42
2017-07-17T09:36:09.038Z,43
2017-07-17T09:38:09.422Z,43
2017-07-17T09:40:07.498Z,43
2017-07-17T09:42:09.787Z,44
2017-07-17T09:44:06.925Z,44
2017-07-17T09:46:11.604Z,44
2017-07-17T09:48:10.452Z,44
2017-07-17T09:50:07.175Z,44
2017-07-17T09:52:09.413Z,44
2017-07-17T09:54:07.307Z,44
2017-07-17T09:56:07.310Z,44
2017-07-17T09:58:12.045Z,44
2017-07-17T10:00:13.363Z,44
2017-07-17T10:02:07.213Z,44
2017-07-17T10:04:06.952Z,44
2017-07-17T10:06:06.653Z,44
2017-07-17T10:08:07.392Z,44
2017-07-17T10:10:12.391Z,45
2017-07-17T10:12:07.134Z,45
2017-07-17T10:14:06.987Z,45
2017-07-17T10:16:09.172Z,45
2017-07-17T10:18:07.047Z,45
2017-07-17T10:20:09.455Z,45
2017-07-17T10:22:07.139Z,45
2017-07-17T10:24:06.849Z,45
2017-07-17T10:26:14.493Z,45
2017-07-17T10:28:07.207Z,45
2017-07-17T10:30:12.055Z,45
2017-07-17T10:32:14.698Z,45
2017-07-17T10:34:12.668Z,45
2017-07-17T10:36:07.383Z,45
2017-07-17T10:38:07.244Z,45
2017-07-17T10:40:19.602Z,45
2017-07-17T10:42:07.390Z,45
2017-07-17T10:44:12.188Z,45
2017-07-17T10:46:19.488Z,45
2017-07-17T10:48:20.052Z,45
2017-07-17T10:50:09.300Z,45
2017-07-17T10:52:07.058Z,45
2017-07-17T10:54:09.277Z,45
2017-07-17T10:56:12.139Z,45
2017-07-17T10:58:06.925Z,45
2017-07-17T11:00:06.727Z,45
2017-07-17T11:02:06.582Z,45
2017-07-17T11:04:07.362Z,45
2017-07-17T11:06:07.027Z,45
2017-07-17T11:08:06.808Z,45
2017-07-17T11:10:09.031Z,45
2017-07-17T11:12:06.701Z,45
2017-07-17T11:14:06.567Z,45
2017-07-17T11:16:07.211Z,45
2017-07-17T11:18:17.257Z,45
2017-07-17T11:20:06.996Z,45
2017-07-17T11:22:06.706Z,45
2017-07-17T11:24:06.422Z,45
2017-07-17T11:26:07.276Z,45
2017-07-17T11:28:09.485Z,46
2017-07-17T11:30:07.239Z,46
2017-07-17T11:32:13.615Z,46
2017-07-17T11:34:07.497Z,46
2017-07-17T11:36:09.756Z,46
2017-07-17T11:38:06.495Z,46
2017-07-17T11:40:09.767Z,46
2017-07-17T11:42:06.430Z,46
2017-07-17T11:44:14.907Z,46
2017-07-17T12:06:11.931Z,45
2017-07-17T12:08:06.779Z,45
2017-07-17T12:10:11.566Z,45
2017-07-17T12:12:12.326Z,45
2017-07-17T12:14:12.259Z,45
2017-07-17T12:16:07.032Z,44
2017-07-17T12:18:07.104Z,45
2017-07-17T12:20:09.548Z,45
2017-07-17T12:22:20.932Z,45
2017-07-17T12:24:12.687Z,45
2017-07-17T12:26:06.529Z,45
2017-07-17T12:28:12.345Z,45
2017-07-17T12:30:09.664Z,44
2017-07-17T12:32:07.741Z,44
2017-07-17T12:34:06.468Z,44
2017-07-17T12:36:08.294Z,44
2017-07-17T12:38:07.398Z,44
2017-07-17T12:40:07.362Z,44
2017-07-17T12:42:10.000Z,44
2017-07-17T12:44:09.392Z,44
2017-07-17T12:46:07.077Z,44
2017-07-17T12:48:11.940Z,44
2017-07-17T12:50:07.095Z,44
2017-07-17T12:52:09.375Z,44
2017-07-17T12:54:07.231Z,44
2017-07-17T12:56:07.343Z,44
2017-07-17T12:58:08.118Z,44
2017-07-17T13:00:09.551Z,44
2017-07-17T13:02:07.259Z,43
2017-07-17T13:04:07.023Z,44
2017-07-17T13:06:09.519Z,43
2017-07-17T13:08:07.625Z,43
2017-07-17T13:10:07.316Z,43
2017-07-17T13:12:09.785Z,43
2017-07-17T13:14:09.124Z,43
2017-07-17T13:16:06.821Z,42
2017-07-17T13:18:09.311Z,43
2017-07-17T13:20:07.227Z,42
2017-07-17T13:22:06.987Z,42
2017-07-17T13:24:11.805Z,42
2017-07-17T13:26:06.667Z,42
2017-07-17T13:28:07.400Z,42
2017-07-17T13:30:07.129Z,42
2017-07-17T13:32:11.949Z,42
2017-07-17T13:34:16.838Z,42
2017-07-17T13:36:09.118Z,42
2017-07-17T13:38:07.081Z,42
2017-07-17T13:40:06.867Z,42
2017-07-17T13:42:06.666Z,41
2017-07-17T13:44:14.972Z,41
2017-07-17T13:46:09.209Z,41
2017-07-17T13:48:06.930Z,41
2017-07-17T13:50:09.233Z,41
2017-07-17T13:56:10.065Z,41
2017-07-17T13:58:09.329Z,41
2017-07-17T14:00:07.061Z,41
2017-07-17T14:04:18.583Z,41
2017-07-17T14:06:07.556Z,41
2017-07-17T14:10:09.892Z,41
2017-07-17T14:12:11.856Z,40
2017-07-17T14:14:09.178Z,40
2017-07-17T14:16:07.023Z,40
2017-07-17T14:18:22.169Z,40
2017-07-17T14:20:09.415Z,40
2017-07-17T14:22:07.258Z,40
2017-07-17T14:24:09.586Z,40
2017-07-17T14:26:09.911Z,40
2017-07-17T14:28:06.974Z,40
2017-07-17T14:34:07.093Z,40
2017-07-17T14:40:06.970Z,40
2017-07-17T14:42:09.298Z,40
2017-07-17T14:44:07.260Z,40
2017-07-17T14:46:12.232Z,40
2017-07-17T14:48:06.938Z,40
2017-07-17T14:50:06.641Z,40
2017-07-17T14:52:10.017Z,39
2017-07-17T14:54:06.729Z,39
2017-07-17T14:56:08.946Z,39
2017-07-17T14:58:07.245Z,38
2017-07-17T15:00:07.016Z,38
2017-07-17T15:02:09.243Z,38
2017-07-17T15:04:07.144Z,37
2017-07-17T15:06:11.934Z,37
2017-07-17T15:08:11.766Z,36
2017-07-17T15:10:06.719Z,36
2017-07-17T15:12:11.478Z,35
2017-07-17T15:14:09.873Z,35
2017-07-17T15:16:06.765Z,35
2017-07-17T15:18:09.312Z,35
2017-07-17T15:20:06.975Z,34
2017-07-17T15:22:07.076Z,35
2017-07-17T15:24:06.985Z,35
2017-07-17T15:26:06.729Z,35
2017-07-17T15:28:06.486Z,35
2017-07-17T15:30:07.211Z,35
2017-07-17T15:32:09.716Z,35
2017-07-17T15:34:06.475Z,35
2017-07-17T15:36:07.159Z,35
2017-07-17T15:38:09.449Z,35
2017-07-17T15:40:07.470Z,35
2017-07-17T15:42:07.152Z,35
2017-07-17T15:44:06.859Z,35
2017-07-17T15:46:06.920Z,34
2017-07-17T15:48:12.009Z,34
2017-07-17T15:50:06.791Z,34
2017-07-17T15:54:14.821Z,33
2017-07-17T15:56:06.538Z,33
2017-07-17T15:59:18.252Z,33
2017-07-17T16:00:09.483Z,33
2017-07-17T16:02:38.383Z,33
2017-07-17T16:04:17.678Z,32
2017-07-17T16:06:07.431Z,32
2017-07-17T16:08:07.207Z,32
2017-07-17T16:10:07.104Z,32
2017-07-17T16:12:09.414Z,32
2017-07-17T16:14:09.664Z,31
2017-07-17T16:16:07.391Z,31
2017-07-17T16:18:07.347Z,31
2017-07-17T16:20:12.209Z,31
2017-07-17T16:22:10.502Z,31
2017-07-17T16:24:17.350Z,31
2017-07-17T16:26:07.041Z,31
2017-07-17T16:28:06.857Z,31
2017-07-17T16:30:09.143Z,31
2017-07-17T16:32:06.837Z,31
2017-07-17T16:34:09.287Z,32
2017-07-17T16:36:07.250Z,31
2017-07-17T16:38:07.069Z,31
2017-07-17T16:40:09.476Z,31
2017-07-17T16:42:07.203Z,31
2017-07-17T16:44:06.942Z,31
2017-07-17T16:46:07.012Z,31
2017-07-17T16:48:09.304Z,31
2017-07-17T16:50:09.590Z,30
2017-07-17T16:52:07.535Z,30
2017-07-17T16:54:14.858Z,30
2017-07-17T16:56:06.574Z,30
2017-07-17T16:58:12.326Z,31
2017-07-17T17:00:07.014Z,30
2017-07-17T17:02:09.216Z,31
2017-07-17T17:04:09.588Z,31
2017-07-17T17:06:07.356Z,31
2017-07-17T17:08:12.279Z,31
2017-07-17T17:10:12.078Z,31
2017-07-17T17:12:09.427Z,30
2017-07-17T17:14:07.162Z,31
2017-07-17T17:16:14.620Z,30
2017-07-17T17:18:07.563Z,30
2017-07-17T17:20:09.772Z,31
2017-07-17T17:22:06.724Z,30
2017-07-17T17:24:09.276Z,31
2017-07-17T17:26:09.642Z,31
2017-07-17T17:28:07.443Z,30
2017-07-17T17:30:07.154Z,31
2017-07-17T17:32:14.513Z,31
2017-07-17T17:34:14.807Z,31
2017-07-17T17:36:06.579Z,31
2017-07-17T17:38:07.283Z,31
2017-07-17T17:40:09.663Z,31
2017-07-17T17:42:12.536Z,31
2017-07-17T17:44:11.046Z,31
2017-07-17T17:46:07.178Z,31
2017-07-17T17:48:18.031Z,31
2017-07-17T17:50:09.246Z,31
2017-07-17T17:52:09.517Z,31
2017-07-17T17:54:07.328Z,31
2017-07-17T17:56:09.753Z,31
2017-07-17T17:58:16.613Z,31
2017-07-17T18:00:09.842Z,31
2017-07-17T18:02:06.607Z,31
2017-07-17T18:04:10.078Z,30
2017-07-17T18:06:06.870Z,30
2017-07-17T18:08:14.178Z,30
2017-07-17T18:10:06.927Z,30
2017-07-17T18:12:06.925Z,30
2017-07-17T18:14:11.751Z,29
2017-07-17T18:16:06.422Z,29
2017-07-17T18:18:16.361Z,26
2017-07-17T18:20:08.548Z,28
2017-07-17T18:22:07.498Z,26
2017-07-17T18:25:12.921Z,28
2017-07-17T18:28:09.789Z,26
2017-07-17T18:30:09.386Z,25
2017-07-17T18:32:09.707Z,25
2017-07-17T18:34:06.469Z,25
2017-07-17T18:36:12.499Z,22
2017-07-17T18:38:07.511Z,22
2017-07-17T18:40:07.669Z,21
2017-07-17T18:42:07.464Z,21
2017-07-17T18:44:07.352Z,21
2017-07-17T18:46:10.688Z,22
2017-07-17T18:48:06.549Z,21
2017-07-17T18:50:07.309Z,20
2017-07-17T18:52:09.342Z,20
2017-07-17T18:54:12.410Z,20
2017-07-17T18:56:12.611Z,20
2017-07-17T18:58:08.341Z,20
2017-07-17T19:00:07.166Z,20
2017-07-17T19:02:12.020Z,20
2017-07-17T19:04:06.763Z,20
2017-07-17T19:06:06.520Z,20
2017-07-17T19:08:07.230Z,20
2017-07-17T19:10:06.963Z,21
2017-07-17T19:12:09.320Z,21
2017-07-17T19:14:09.609Z,21
2017-07-17T19:16:09.886Z,22
2017-07-17T19:18:06.839Z,22
2017-07-17T19:20:09.460Z,22
2017-07-17T19:22:07.207Z,22
2017-07-17T19:24:07.008Z,22
2017-07-17T19:26:14.323Z,22
2017-07-17T19:28:07.052Z,21
2017-07-17T19:30:11.791Z,21
2017-07-17T19:32:06.538Z,19
2017-07-17T19:34:07.274Z,20
2017-07-17T19:36:07.283Z,19
2017-07-17T19:38:12.088Z,19
2017-07-17T19:40:10.400Z,19
2017-07-17T19:42:07.130Z,19
2017-07-17T19:44:06.889Z,19
2017-07-17T19:46:09.126Z,19
2017-07-17T19:48:11.218Z,19
2017-07-17T19:50:24.478Z,19
2017-07-17T19:52:14.789Z,19
2017-07-17T19:54:09.015Z,19
2017-07-17T19:56:08.268Z,19
2017-07-17T19:58:11.945Z,19
2017-07-17T20:00:09.879Z,19
2017-07-17T20:02:10.195Z,19
2017-07-17T20:04:09.439Z,19
2017-07-17T20:06:15.238Z,19
2017-07-17T20:08:10.023Z,19
2017-07-17T20:10:12.007Z,19
2017-07-17T20:12:11.841Z,19
2017-07-17T20:14:14.202Z,19
2017-07-17T20:16:09.532Z,19
2017-07-17T20:18:11.719Z,19
2017-07-17T20:20:09.440Z,19
2017-07-17T20:22:07.330Z,19
2017-07-17T20:24:14.729Z,19
2017-07-17T20:26:06.804Z,19
2017-07-17T20:28:06.586Z,19
2017-07-17T20:30:10.019Z,19
2017-07-17T20:32:06.795Z,19
2017-07-17T20:34:06.575Z,19
2017-07-17T20:36:12.538Z,19
2017-07-17T20:38:14.288Z,19
2017-07-17T20:40:14.716Z,19
2017-07-17T20:42:12.105Z,19
2017-07-17T20:44:11.862Z,19
2017-07-17T20:46:11.207Z,19
2017-07-17T20:48:07.000Z,19
2017-07-17T20:50:09.223Z,19
2017-07-17T20:52:07.143Z,19
2017-07-17T20:54:06.886Z,19
2017-07-17T20:56:11.831Z,19
2017-07-17T20:58:14.138Z,19
2017-07-17T21:00:09.455Z,19
2017-07-17T21:02:09.715Z,19
2017-07-17T21:04:06.975Z,19
2017-07-17T21:06:08.778Z,19
2017-07-17T21:08:07.106Z,19
2017-07-17T21:10:06.854Z,19
2017-07-17T21:12:06.682Z,19
2017-07-17T21:14:13.362Z,19
2017-07-17T21:16:12.677Z,19
2017-07-17T21:18:06.555Z,19
2017-07-17T21:20:07.252Z,19
2017-07-17T21:22:07.325Z,19
2017-07-17T21:24:07.461Z,19
2017-07-17T21:26:09.784Z,19
2017-07-17T21:28:16.515Z,19
2017-07-17T21:30:12.318Z,19
2017-07-17T21:32:09.674Z,19
2017-07-17T21:34:07.717Z,19
2017-07-17T21:36:06.478Z,19
2017-07-17T21:38:07.190Z,19
2017-07-17T21:40:15.068Z,19
2017-07-17T21:42:09.324Z,19
2017-07-17T21:44:09.658Z,19
2017-07-17T21:46:07.450Z,19
2017-07-17T21:48:07.185Z,19
2017-07-17T21:50:07.201Z,19
2017-07-17T21:52:07.166Z,19
2017-07-17T21:54:06.920Z,19
2017-07-17T21:56:06.870Z,19
2017-07-17T21:58:19.304Z,19
2017-07-17T22:00:12.336Z,19
2017-07-17T22:02:14.802Z,19
2017-07-17T22:04:06.527Z,19
2017-07-17T22:06:14.840Z,19
2017-07-17T22:08:07.008Z,20
2017-07-17T22:10:06.960Z,19
2017-07-17T22:12:09.581Z,19
2017-07-17T22:14:12.384Z,19
2017-07-17T22:16:07.184Z,19
2017-07-17T22:18:07.092Z,19
2017-07-17T22:20:09.319Z,19
2017-07-17T22:22:09.849Z,20
2017-07-17T22:24:06.623Z,20
2017-07-17T22:26:07.278Z,19
2017-07-17T22:28:09.645Z,20
2017-07-17T22:30:09.921Z,20
2017-07-17T22:32:06.719Z,20
2017-07-17T22:34:16.545Z,20
2017-07-17T22:36:09.892Z,19
2017-07-17T22:38:06.986Z,20
2017-07-17T22:40:09.283Z,20
2017-07-17T22:42:07.043Z,19
2017-07-17T22:44:11.976Z,19
2017-07-17T22:46:06.723Z,19
2017-07-17T22:48:11.609Z,19
2017-07-17T22:50:07.583Z,19
2017-07-17T22:52:07.381Z,19
2017-07-17T22:54:07.082Z,19
2017-07-17T22:56:09.331Z,19
2017-07-17T22:58:09.609Z,19
2017-07-17T23:00:07.496Z,19
2017-07-17T23:02:07.211Z,19
2017-07-17T23:04:06.932Z,19
2017-07-17T23:06:19.451Z,19
2017-07-17T23:08:07.182Z,19
2017-07-17T23:10:11.923Z,19
2017-07-17T23:14:06.870Z,19
2017-07-17T23:16:11.884Z,19
2017-07-17T23:18:09.458Z,19
2017-07-17T23:20:12.424Z,19
2017-07-17T23:22:09.694Z,19
2017-07-17T23:24:14.059Z,19
2017-07-17T23:26:06.771Z,19
2017-07-17T23:28:06.460Z,20
2017-07-17T23:30:09.730Z,20
2017-07-17T23:32:09.423Z,20
2017-07-17T23:34:07.156Z,20
2017-07-17T23:36:09.381Z,20
2017-07-17T23:38:07.271Z,20
2017-07-17T23:40:09.539Z,20
2017-07-17T23:42:09.773Z,20
2017-07-17T23:44:06.467Z,20
2017-07-17T23:46:07.363Z,20
2017-07-17T23:48:07.138Z,20
2017-07-17T23:50:12.023Z,20
2017-07-17T23:52:06.710Z,20
2017-07-17T23:54:08.942Z,20
2017-07-17T23:56:09.475Z,20
2017-07-17T23:58:07.206Z,20
